sensor_id;sensor_type;location;lat;lon;timestamp;temperature;humidity
42755;DHT22;28407;51.830;5.684;2023-02-28T00:00:37;3.10;68.80
42755;DHT22;28407;51.830;5.684;2023-02-28T00:02:42;3.10;68.80
42755;DHT22;28407;51.830;5.684;2023-02-28T00:04:43;3.10;68.80
42755;DHT22;28407;51.830;5.684;2023-02-28T00:06:44;3.10;68.80
42755;DHT22;28407;51.830;5.684;2023-02-28T00:08:44;3.00;68.80
42755;DHT22;28407;51.830;5.684;2023-02-28T00:10:45;3.10;69.00
42755;DHT22;28407;51.830;5.684;2023-02-28T00:12:59;3.00;68.90
42755;DHT22;28407;51.830;5.684;2023-02-28T00:15:01;3.00;69.00
42755;DHT22;28407;51.830;5.684;2023-02-28T00:17:02;3.00;69.00
42755;DHT22;28407;51.830;5.684;2023-02-28T00:19:02;3.00;69.00
42755;DHT22;28407;51.830;5.684;2023-02-28T00:21:04;3.00;69.00
42755;DHT22;28407;51.830;5.684;2023-02-28T00:23:05;3.00;69.10
42755;DHT22;28407;51.830;5.684;2023-02-28T00:25:06;3.00;69.10
42755;DHT22;28407;51.830;5.684;2023-02-28T00:27:07;3.00;69.10
42755;DHT22;28407;51.830;5.684;2023-02-28T00:29:08;3.00;69.20
42755;DHT22;28407;51.830;5.684;2023-02-28T00:31:09;3.00;69.20
42755;DHT22;28407;51.830;5.684;2023-02-28T00:33:10;3.00;69.20
42755;DHT22;28407;51.830;5.684;2023-02-28T00:35:12;3.00;69.20
42755;DHT22;28407;51.830;5.684;2023-02-28T00:37:15;3.00;69.30
42755;DHT22;28407;51.830;5.684;2023-02-28T00:39:16;3.00;69.30
42755;DHT22;28407;51.830;5.684;2023-02-28T00:41:17;3.00;69.30
42755;DHT22;28407;51.830;5.684;2023-02-28T00:43:17;3.00;69.30
42755;DHT22;28407;51.830;5.684;2023-02-28T00:45:19;3.00;69.30
42755;DHT22;28407;51.830;5.684;2023-02-28T00:47:19;3.00;69.30
42755;DHT22;28407;51.830;5.684;2023-02-28T00:49:20;3.00;69.30
42755;DHT22;28407;51.830;5.684;2023-02-28T00:51:21;3.00;69.40
42755;DHT22;28407;51.830;5.684;2023-02-28T00:53:22;3.10;69.40
42755;DHT22;28407;51.830;5.684;2023-02-28T00:55:22;3.00;69.40
42755;DHT22;28407;51.830;5.684;2023-02-28T00:57:23;3.00;69.40
42755;DHT22;28407;51.830;5.684;2023-02-28T00:59:24;3.00;69.50
42755;DHT22;28407;51.830;5.684;2023-02-28T01:01:24;3.00;69.60
42755;DHT22;28407;51.830;5.684;2023-02-28T01:03:25;3.00;70.20
42755;DHT22;28407;51.830;5.684;2023-02-28T01:05:26;3.00;69.50
42755;DHT22;28407;51.830;5.684;2023-02-28T01:07:27;3.10;69.60
42755;DHT22;28407;51.830;5.684;2023-02-28T01:09:28;3.10;69.60
42755;DHT22;28407;51.830;5.684;2023-02-28T01:11:28;3.10;69.60
42755;DHT22;28407;51.830;5.684;2023-02-28T01:13:29;3.10;69.70
42755;DHT22;28407;51.830;5.684;2023-02-28T01:15:30;3.10;69.70
42755;DHT22;28407;51.830;5.684;2023-02-28T01:17:32;3.10;69.80
42755;DHT22;28407;51.830;5.684;2023-02-28T01:19:35;3.10;69.80
42755;DHT22;28407;51.830;5.684;2023-02-28T01:21:36;3.10;69.90
42755;DHT22;28407;51.830;5.684;2023-02-28T01:23:38;3.10;69.90
42755;DHT22;28407;51.830;5.684;2023-02-28T01:25:40;3.10;70.00
42755;DHT22;28407;51.830;5.684;2023-02-28T01:27:41;3.10;70.00
42755;DHT22;28407;51.830;5.684;2023-02-28T01:29:41;3.10;70.00
42755;DHT22;28407;51.830;5.684;2023-02-28T01:31:43;3.10;70.00
42755;DHT22;28407;51.830;5.684;2023-02-28T01:33:44;3.10;70.10
42755;DHT22;28407;51.830;5.684;2023-02-28T01:35:45;3.10;70.10
42755;DHT22;28407;51.830;5.684;2023-02-28T01:37:46;3.20;70.10
42755;DHT22;28407;51.830;5.684;2023-02-28T01:39:46;3.10;70.10
42755;DHT22;28407;51.830;5.684;2023-02-28T01:41:47;3.20;70.10
42755;DHT22;28407;51.830;5.684;2023-02-28T01:45:48;3.20;70.10
42755;DHT22;28407;51.830;5.684;2023-02-28T01:47:52;3.20;70.20
42755;DHT22;28407;51.830;5.684;2023-02-28T01:49:54;3.20;70.20
42755;DHT22;28407;51.830;5.684;2023-02-28T01:51:56;3.20;70.20
42755;DHT22;28407;51.830;5.684;2023-02-28T01:54:03;3.20;70.20
42755;DHT22;28407;51.830;5.684;2023-02-28T01:56:07;3.20;70.30
42755;DHT22;28407;51.830;5.684;2023-02-28T01:58:08;3.20;70.30
42755;DHT22;28407;51.830;5.684;2023-02-28T02:00:14;3.20;70.30
42755;DHT22;28407;51.830;5.684;2023-02-28T02:02:21;3.30;70.40
42755;DHT22;28407;51.830;5.684;2023-02-28T02:04:27;3.30;70.30
42755;DHT22;28407;51.830;5.684;2023-02-28T02:06:42;3.30;70.40
42755;DHT22;28407;51.830;5.684;2023-02-28T02:08:44;3.30;70.30
42755;DHT22;28407;51.830;5.684;2023-02-28T02:10:53;3.30;70.30
42755;DHT22;28407;51.830;5.684;2023-02-28T02:15:53;3.40;70.30
42755;DHT22;28407;51.830;5.684;2023-02-28T02:18:00;3.40;70.20
42755;DHT22;28407;51.830;5.684;2023-02-28T02:24:41;3.50;70.30
42755;DHT22;28407;51.830;5.684;2023-02-28T02:29:33;3.50;70.20
42755;DHT22;28407;51.830;5.684;2023-02-28T02:31:52;3.50;70.20
42755;DHT22;28407;51.830;5.684;2023-02-28T02:36:24;3.50;70.30
42755;DHT22;28407;51.830;5.684;2023-02-28T02:43:16;3.60;70.40
42755;DHT22;28407;51.830;5.684;2023-02-28T02:45:19;3.60;70.30
42755;DHT22;28407;51.830;5.684;2023-02-28T02:47:25;3.60;70.40
42755;DHT22;28407;51.830;5.684;2023-02-28T02:49:30;3.60;70.30
42755;DHT22;28407;51.830;5.684;2023-02-28T02:51:33;3.60;70.40
42755;DHT22;28407;51.830;5.684;2023-02-28T02:53:38;3.60;70.40
42755;DHT22;28407;51.830;5.684;2023-02-28T02:55:44;3.60;70.40
42755;DHT22;28407;51.830;5.684;2023-02-28T02:57:53;3.60;70.50
42755;DHT22;28407;51.830;5.684;2023-02-28T02:59:55;3.60;70.50
42755;DHT22;28407;51.830;5.684;2023-02-28T03:01:59;3.60;70.50
42755;DHT22;28407;51.830;5.684;2023-02-28T03:04:04;3.70;70.60
42755;DHT22;28407;51.830;5.684;2023-02-28T03:06:06;3.70;70.60
42755;DHT22;28407;51.830;5.684;2023-02-28T03:08:06;3.70;70.60
42755;DHT22;28407;51.830;5.684;2023-02-28T03:12:41;3.70;70.70
42755;DHT22;28407;51.830;5.684;2023-02-28T03:14:56;3.70;70.60
42755;DHT22;28407;51.830;5.684;2023-02-28T03:26:03;3.70;70.60
42755;DHT22;28407;51.830;5.684;2023-02-28T03:28:26;3.80;70.70
42755;DHT22;28407;51.830;5.684;2023-02-28T03:30:37;3.80;70.70
42755;DHT22;28407;51.830;5.684;2023-02-28T03:32:44;3.80;70.70
42755;DHT22;28407;51.830;5.684;2023-02-28T03:35:08;3.80;70.70
42755;DHT22;28407;51.830;5.684;2023-02-28T03:37:15;3.80;70.70
42755;DHT22;28407;51.830;5.684;2023-02-28T03:39:35;3.80;70.70
42755;DHT22;28407;51.830;5.684;2023-02-28T03:41:57;3.80;70.60
42755;DHT22;28407;51.830;5.684;2023-02-28T03:44:05;3.80;70.60
42755;DHT22;28407;51.830;5.684;2023-02-28T03:46:10;3.80;70.60
42755;DHT22;28407;51.830;5.684;2023-02-28T03:48:18;3.80;70.60
42755;DHT22;28407;51.830;5.684;2023-02-28T03:50:29;3.80;70.70
42755;DHT22;28407;51.830;5.684;2023-02-28T03:52:36;3.80;70.70
42755;DHT22;28407;51.830;5.684;2023-02-28T03:55:01;3.80;70.70
42755;DHT22;28407;51.830;5.684;2023-02-28T03:57:10;3.80;70.70
42755;DHT22;28407;51.830;5.684;2023-02-28T03:59:28;3.80;70.70
42755;DHT22;28407;51.830;5.684;2023-02-28T04:01:39;3.80;70.70
42755;DHT22;28407;51.830;5.684;2023-02-28T04:03:41;3.80;70.70
42755;DHT22;28407;51.830;5.684;2023-02-28T04:05:53;3.80;70.70
42755;DHT22;28407;51.830;5.684;2023-02-28T04:08:03;3.80;70.70
42755;DHT22;28407;51.830;5.684;2023-02-28T04:10:04;3.80;70.70
42755;DHT22;28407;51.830;5.684;2023-02-28T04:12:05;3.80;70.70
42755;DHT22;28407;51.830;5.684;2023-02-28T04:14:07;3.80;70.80
42755;DHT22;28407;51.830;5.684;2023-02-28T04:16:09;3.80;70.80
42755;DHT22;28407;51.830;5.684;2023-02-28T04:18:12;3.90;70.90
42755;DHT22;28407;51.830;5.684;2023-02-28T04:20:13;3.90;70.90
42755;DHT22;28407;51.830;5.684;2023-02-28T04:22:13;3.90;70.90
42755;DHT22;28407;51.830;5.684;2023-02-28T04:24:20;3.80;71.50
42755;DHT22;28407;51.830;5.684;2023-02-28T04:26:21;3.90;70.90
42755;DHT22;28407;51.830;5.684;2023-02-28T04:28:21;3.80;70.90
42755;DHT22;28407;51.830;5.684;2023-02-28T04:30:22;3.90;70.90
42755;DHT22;28407;51.830;5.684;2023-02-28T04:32:23;3.90;71.00
42755;DHT22;28407;51.830;5.684;2023-02-28T04:34:24;3.90;71.00
42755;DHT22;28407;51.830;5.684;2023-02-28T04:36:25;3.80;71.00
42755;DHT22;28407;51.830;5.684;2023-02-28T04:38:26;3.90;71.00
42755;DHT22;28407;51.830;5.684;2023-02-28T04:40:27;3.80;71.00
42755;DHT22;28407;51.830;5.684;2023-02-28T04:42:27;3.80;71.00
42755;DHT22;28407;51.830;5.684;2023-02-28T04:44:35;3.80;71.00
42755;DHT22;28407;51.830;5.684;2023-02-28T04:46:36;3.80;71.00
42755;DHT22;28407;51.830;5.684;2023-02-28T04:48:38;3.80;71.10
42755;DHT22;28407;51.830;5.684;2023-02-28T04:50:39;3.80;71.10
42755;DHT22;28407;51.830;5.684;2023-02-28T04:52:39;3.80;71.20
42755;DHT22;28407;51.830;5.684;2023-02-28T04:54:40;3.80;71.20
42755;DHT22;28407;51.830;5.684;2023-02-28T04:56:40;3.80;71.20
42755;DHT22;28407;51.830;5.684;2023-02-28T04:58:41;3.80;71.20
42755;DHT22;28407;51.830;5.684;2023-02-28T05:00:43;3.80;71.20
42755;DHT22;28407;51.830;5.684;2023-02-28T05:02:43;3.90;71.30
42755;DHT22;28407;51.830;5.684;2023-02-28T05:04:44;3.90;71.30
42755;DHT22;28407;51.830;5.684;2023-02-28T05:06:44;3.80;71.20
42755;DHT22;28407;51.830;5.684;2023-02-28T05:08:45;3.90;71.30
42755;DHT22;28407;51.830;5.684;2023-02-28T05:10:46;3.90;71.30
42755;DHT22;28407;51.830;5.684;2023-02-28T05:12:47;3.90;71.90
42755;DHT22;28407;51.830;5.684;2023-02-28T05:14:48;3.90;71.30
42755;DHT22;28407;51.830;5.684;2023-02-28T05:16:49;3.90;71.30
42755;DHT22;28407;51.830;5.684;2023-02-28T05:18:49;3.90;71.30
42755;DHT22;28407;51.830;5.684;2023-02-28T05:20:50;3.90;71.40
42755;DHT22;28407;51.830;5.684;2023-02-28T05:22:50;3.90;71.30
42755;DHT22;28407;51.830;5.684;2023-02-28T05:24:52;3.90;71.30
42755;DHT22;28407;51.830;5.684;2023-02-28T05:26:54;3.90;71.30
42755;DHT22;28407;51.830;5.684;2023-02-28T05:28:55;3.90;71.20
42755;DHT22;28407;51.830;5.684;2023-02-28T05:30:56;3.90;71.30
42755;DHT22;28407;51.830;5.684;2023-02-28T05:32:56;3.80;71.20
42755;DHT22;28407;51.830;5.684;2023-02-28T05:34:57;3.80;71.30
42755;DHT22;28407;51.830;5.684;2023-02-28T05:36:58;3.80;71.30
42755;DHT22;28407;51.830;5.684;2023-02-28T05:38:58;3.80;71.30
42755;DHT22;28407;51.830;5.684;2023-02-28T05:40:59;3.90;71.40
42755;DHT22;28407;51.830;5.684;2023-02-28T05:43:00;3.90;71.40
42755;DHT22;28407;51.830;5.684;2023-02-28T05:45:01;3.90;71.40
42755;DHT22;28407;51.830;5.684;2023-02-28T05:47:02;3.90;71.30
42755;DHT22;28407;51.830;5.684;2023-02-28T05:49:03;3.90;71.30
42755;DHT22;28407;51.830;5.684;2023-02-28T05:51:05;3.80;71.30
42755;DHT22;28407;51.830;5.684;2023-02-28T05:53:05;3.90;71.40
42755;DHT22;28407;51.830;5.684;2023-02-28T05:55:06;3.90;71.40
42755;DHT22;28407;51.830;5.684;2023-02-28T05:57:07;3.90;71.40
42755;DHT22;28407;51.830;5.684;2023-02-28T05:59:08;3.90;71.40
42755;DHT22;28407;51.830;5.684;2023-02-28T06:01:44;3.90;71.40
42755;DHT22;28407;51.830;5.684;2023-02-28T06:03:48;3.90;71.40
42755;DHT22;28407;51.830;5.684;2023-02-28T06:05:49;3.90;71.30
42755;DHT22;28407;51.830;5.684;2023-02-28T06:07:50;3.90;71.30
42755;DHT22;28407;51.830;5.684;2023-02-28T06:09:51;3.90;71.30
42755;DHT22;28407;51.830;5.684;2023-02-28T06:11:52;3.90;71.30
42755;DHT22;28407;51.830;5.684;2023-02-28T06:13:56;3.90;71.20
42755;DHT22;28407;51.830;5.684;2023-02-28T06:16:01;3.90;71.20
42755;DHT22;28407;51.830;5.684;2023-02-28T06:18:01;3.90;71.20
42755;DHT22;28407;51.830;5.684;2023-02-28T06:20:02;3.90;71.20
42755;DHT22;28407;51.830;5.684;2023-02-28T06:22:03;3.90;71.20
42755;DHT22;28407;51.830;5.684;2023-02-28T06:24:04;3.90;71.20
42755;DHT22;28407;51.830;5.684;2023-02-28T06:26:05;3.90;71.20
42755;DHT22;28407;51.830;5.684;2023-02-28T06:28:06;3.90;71.20
42755;DHT22;28407;51.830;5.684;2023-02-28T06:30:07;3.90;71.20
42755;DHT22;28407;51.830;5.684;2023-02-28T06:32:08;3.90;71.20
42755;DHT22;28407;51.830;5.684;2023-02-28T06:34:08;3.90;71.80
42755;DHT22;28407;51.830;5.684;2023-02-28T06:36:13;3.90;71.20
42755;DHT22;28407;51.830;5.684;2023-02-28T06:38:14;3.90;71.10
42755;DHT22;28407;51.830;5.684;2023-02-28T06:40:15;3.90;71.10
42755;DHT22;28407;51.830;5.684;2023-02-28T06:42:16;3.90;71.10
42755;DHT22;28407;51.830;5.684;2023-02-28T06:44:17;3.90;71.20
42755;DHT22;28407;51.830;5.684;2023-02-28T06:46:18;3.90;71.20
42755;DHT22;28407;51.830;5.684;2023-02-28T06:48:19;3.90;71.20
42755;DHT22;28407;51.830;5.684;2023-02-28T06:50:20;3.90;71.20
42755;DHT22;28407;51.830;5.684;2023-02-28T06:52:20;3.90;71.10
42755;DHT22;28407;51.830;5.684;2023-02-28T06:54:22;3.90;71.20
42755;DHT22;28407;51.830;5.684;2023-02-28T06:56:23;3.90;71.20
42755;DHT22;28407;51.830;5.684;2023-02-28T06:58:23;3.90;71.10
42755;DHT22;28407;51.830;5.684;2023-02-28T07:00:24;3.90;71.00
42755;DHT22;28407;51.830;5.684;2023-02-28T07:02:26;3.90;71.00
42755;DHT22;28407;51.830;5.684;2023-02-28T07:04:28;3.90;71.10
42755;DHT22;28407;51.830;5.684;2023-02-28T07:06:29;3.90;71.00
42755;DHT22;28407;51.830;5.684;2023-02-28T07:08:29;3.90;71.00
42755;DHT22;28407;51.830;5.684;2023-02-28T07:10:32;3.90;71.00
42755;DHT22;28407;51.830;5.684;2023-02-28T07:12:33;4.00;71.00
42755;DHT22;28407;51.830;5.684;2023-02-28T07:14:33;4.00;70.90
42755;DHT22;28407;51.830;5.684;2023-02-28T07:16:36;4.00;70.80
42755;DHT22;28407;51.830;5.684;2023-02-28T07:18:37;4.00;70.80
42755;DHT22;28407;51.830;5.684;2023-02-28T07:20:38;4.00;70.80
42755;DHT22;28407;51.830;5.684;2023-02-28T07:22:39;4.00;71.40
42755;DHT22;28407;51.830;5.684;2023-02-28T07:24:40;4.00;70.70
42755;DHT22;28407;51.830;5.684;2023-02-28T07:26:40;4.00;70.60
42755;DHT22;28407;51.830;5.684;2023-02-28T07:28:42;4.00;70.60
42755;DHT22;28407;51.830;5.684;2023-02-28T07:30:42;4.10;70.70
42755;DHT22;28407;51.830;5.684;2023-02-28T07:32:43;4.10;70.60
42755;DHT22;28407;51.830;5.684;2023-02-28T07:34:44;4.10;70.60
42755;DHT22;28407;51.830;5.684;2023-02-28T07:36:45;4.10;70.60
42755;DHT22;28407;51.830;5.684;2023-02-28T07:38:47;4.10;70.50
42755;DHT22;28407;51.830;5.684;2023-02-28T07:40:50;4.10;70.40
42755;DHT22;28407;51.830;5.684;2023-02-28T07:42:50;4.10;70.40
42755;DHT22;28407;51.830;5.684;2023-02-28T07:44:51;4.10;70.30
42755;DHT22;28407;51.830;5.684;2023-02-28T07:46:53;4.20;70.30
42755;DHT22;28407;51.830;5.684;2023-02-28T07:48:54;4.20;70.30
42755;DHT22;28407;51.830;5.684;2023-02-28T07:50:56;4.10;70.20
42755;DHT22;28407;51.830;5.684;2023-02-28T07:52:59;4.20;70.20
42755;DHT22;28407;51.830;5.684;2023-02-28T07:55:00;4.20;70.20
42755;DHT22;28407;51.830;5.684;2023-02-28T07:57:01;4.20;70.10
42755;DHT22;28407;51.830;5.684;2023-02-28T07:59:02;4.20;70.00
42755;DHT22;28407;51.830;5.684;2023-02-28T08:01:09;4.20;69.90
42755;DHT22;28407;51.830;5.684;2023-02-28T08:03:12;4.10;69.70
42755;DHT22;28407;51.830;5.684;2023-02-28T08:05:12;4.10;69.60
42755;DHT22;28407;51.830;5.684;2023-02-28T08:07:13;4.10;69.40
42755;DHT22;28407;51.830;5.684;2023-02-28T08:09:14;4.10;69.20
42755;DHT22;28407;51.830;5.684;2023-02-28T08:11:16;4.10;69.10
42755;DHT22;28407;51.830;5.684;2023-02-28T08:13:17;4.10;68.80
42755;DHT22;28407;51.830;5.684;2023-02-28T08:15:18;4.20;68.70
42755;DHT22;28407;51.830;5.684;2023-02-28T08:17:19;4.10;68.30
42755;DHT22;28407;51.830;5.684;2023-02-28T08:19:19;4.20;68.10
42755;DHT22;28407;51.830;5.684;2023-02-28T08:21:21;4.20;67.70
42755;DHT22;28407;51.830;5.684;2023-02-28T08:23:21;4.20;67.30
42755;DHT22;28407;51.830;5.684;2023-02-28T08:25:22;4.20;66.90
42755;DHT22;28407;51.830;5.684;2023-02-28T08:27:23;4.20;66.90
42755;DHT22;28407;51.830;5.684;2023-02-28T08:29:24;4.20;66.70
42755;DHT22;28407;51.830;5.684;2023-02-28T08:31:24;4.30;66.70
42755;DHT22;28407;51.830;5.684;2023-02-28T08:33:26;4.30;64.70
42755;DHT22;28407;51.830;5.684;2023-02-28T08:35:27;4.30;64.70
42755;DHT22;28407;51.830;5.684;2023-02-28T08:37:28;4.30;65.00
42755;DHT22;28407;51.830;5.684;2023-02-28T08:39:28;4.30;64.70
42755;DHT22;28407;51.830;5.684;2023-02-28T08:41:29;4.30;64.80
42755;DHT22;28407;51.830;5.684;2023-02-28T08:43:30;4.30;63.30
42755;DHT22;28407;51.830;5.684;2023-02-28T08:45:30;4.30;63.30
42755;DHT22;28407;51.830;5.684;2023-02-28T08:47:31;4.30;62.90
42755;DHT22;28407;51.830;5.684;2023-02-28T08:49:32;4.30;62.70
42755;DHT22;28407;51.830;5.684;2023-02-28T08:51:33;4.30;62.10
42755;DHT22;28407;51.830;5.684;2023-02-28T08:53:34;4.30;61.00
42755;DHT22;28407;51.830;5.684;2023-02-28T08:55:35;4.30;61.50
42755;DHT22;28407;51.830;5.684;2023-02-28T08:57:36;4.30;61.50
42755;DHT22;28407;51.830;5.684;2023-02-28T08:59:38;4.30;61.40
42755;DHT22;28407;51.830;5.684;2023-02-28T09:01:38;4.30;60.50
42755;DHT22;28407;51.830;5.684;2023-02-28T09:03:40;4.30;60.50
42755;DHT22;28407;51.830;5.684;2023-02-28T09:05:41;4.40;60.70
42755;DHT22;28407;51.830;5.684;2023-02-28T09:07:51;4.40;60.80
42755;DHT22;28407;51.830;5.684;2023-02-28T09:09:52;4.40;59.80
42755;DHT22;28407;51.830;5.684;2023-02-28T09:11:56;4.40;59.80
42755;DHT22;28407;51.830;5.684;2023-02-28T09:13:58;4.40;59.20
42755;DHT22;28407;51.830;5.684;2023-02-28T09:16:01;4.40;59.30
42755;DHT22;28407;51.830;5.684;2023-02-28T09:18:02;4.50;59.10
42755;DHT22;28407;51.830;5.684;2023-02-28T09:20:03;4.50;58.80
42755;DHT22;28407;51.830;5.684;2023-02-28T09:22:04;4.50;58.90
42755;DHT22;28407;51.830;5.684;2023-02-28T09:24:05;4.60;58.90
42755;DHT22;28407;51.830;5.684;2023-02-28T09:26:06;4.60;59.10
42755;DHT22;28407;51.830;5.684;2023-02-28T09:28:07;4.60;58.70
42755;DHT22;28407;51.830;5.684;2023-02-28T09:30:08;4.60;58.80
42755;DHT22;28407;51.830;5.684;2023-02-28T09:32:09;4.70;58.60
42755;DHT22;28407;51.830;5.684;2023-02-28T09:34:09;4.70;58.20
42755;DHT22;28407;51.830;5.684;2023-02-28T09:36:10;4.70;57.70
42755;DHT22;28407;51.830;5.684;2023-02-28T09:38:11;4.70;58.00
42755;DHT22;28407;51.830;5.684;2023-02-28T09:40:12;4.80;58.10
42755;DHT22;28407;51.830;5.684;2023-02-28T09:42:21;4.80;58.00
42755;DHT22;28407;51.830;5.684;2023-02-28T09:44:31;4.80;57.90
42755;DHT22;28407;51.830;5.684;2023-02-28T09:46:40;4.80;57.60
42755;DHT22;28407;51.830;5.684;2023-02-28T09:48:45;4.80;57.80
42755;DHT22;28407;51.830;5.684;2023-02-28T09:50:54;4.90;57.90
42755;DHT22;28407;51.830;5.684;2023-02-28T09:52:56;4.80;57.40
42755;DHT22;28407;51.830;5.684;2023-02-28T09:55:15;4.90;57.60
42755;DHT22;28407;51.830;5.684;2023-02-28T09:57:47;4.90;57.30
42755;DHT22;28407;51.830;5.684;2023-02-28T10:04:51;4.90;56.70
42755;DHT22;28407;51.830;5.684;2023-02-28T10:06:55;5.00;56.50
42755;DHT22;28407;51.830;5.684;2023-02-28T10:11:03;5.00;56.50
42755;DHT22;28407;51.830;5.684;2023-02-28T10:13:22;5.00;56.60
42755;DHT22;28407;51.830;5.684;2023-02-28T10:15:26;5.00;56.50
42755;DHT22;28407;51.830;5.684;2023-02-28T10:17:39;5.10;56.60
42755;DHT22;28407;51.830;5.684;2023-02-28T10:24:49;5.10;56.40
42755;DHT22;28407;51.830;5.684;2023-02-28T10:26:26;5.20;55.70
42755;DHT22;28407;51.830;5.684;2023-02-28T10:28:29;5.20;55.50
42755;DHT22;28407;51.830;5.684;2023-02-28T10:30:31;5.20;55.00
42755;DHT22;28407;51.830;5.684;2023-02-28T10:32:36;5.20;55.30
42755;DHT22;28407;51.830;5.684;2023-02-28T10:34:38;5.20;55.40
42755;DHT22;28407;51.830;5.684;2023-02-28T10:36:39;5.30;54.90
42755;DHT22;28407;51.830;5.684;2023-02-28T10:38:40;5.30;54.40
42755;DHT22;28407;51.830;5.684;2023-02-28T10:40:41;5.30;54.40
42755;DHT22;28407;51.830;5.684;2023-02-28T10:42:41;5.30;54.10
42755;DHT22;28407;51.830;5.684;2023-02-28T10:44:42;5.30;54.40
42755;DHT22;28407;51.830;5.684;2023-02-28T10:46:43;5.40;54.40
42755;DHT22;28407;51.830;5.684;2023-02-28T10:48:47;5.40;54.10
42755;DHT22;28407;51.830;5.684;2023-02-28T10:50:51;5.40;53.70
42755;DHT22;28407;51.830;5.684;2023-02-28T10:52:54;5.40;53.90
42755;DHT22;28407;51.830;5.684;2023-02-28T10:55:15;5.50;54.00
42755;DHT22;28407;51.830;5.684;2023-02-28T10:57:22;5.50;53.80
42755;DHT22;28407;51.830;5.684;2023-02-28T10:59:28;5.50;53.70
42755;DHT22;28407;51.830;5.684;2023-02-28T11:01:43;5.60;53.80
42755;DHT22;28407;51.830;5.684;2023-02-28T11:03:53;5.60;53.60
42755;DHT22;28407;51.830;5.684;2023-02-28T11:05:53;5.60;53.20
42755;DHT22;28407;51.830;5.684;2023-02-28T11:07:56;5.60;53.10
42755;DHT22;28407;51.830;5.684;2023-02-28T11:09:58;5.70;53.10
42755;DHT22;28407;51.830;5.684;2023-02-28T11:11:59;5.70;53.00
42755;DHT22;28407;51.830;5.684;2023-02-28T11:14:04;5.70;53.20
42755;DHT22;28407;51.830;5.684;2023-02-28T11:16:10;5.70;53.20
42755;DHT22;28407;51.830;5.684;2023-02-28T11:20:22;5.80;52.80
42755;DHT22;28407;51.830;5.684;2023-02-28T11:22:26;5.80;52.40
42755;DHT22;28407;51.830;5.684;2023-02-28T11:24:46;5.80;52.60
42755;DHT22;28407;51.830;5.684;2023-02-28T11:26:49;5.80;52.70
42755;DHT22;28407;51.830;5.684;2023-02-28T11:29:09;5.90;52.30
42755;DHT22;28407;51.830;5.684;2023-02-28T11:35:34;6.00;52.40
42755;DHT22;28407;51.830;5.684;2023-02-28T11:37:38;6.00;52.50
42755;DHT22;28407;51.830;5.684;2023-02-28T11:39:38;6.10;52.50
42755;DHT22;28407;51.830;5.684;2023-02-28T11:44:08;6.20;52.40
42755;DHT22;28407;51.830;5.684;2023-02-28T11:48:31;6.20;51.80
42755;DHT22;28407;51.830;5.684;2023-02-28T11:50:58;6.20;51.60
42755;DHT22;28407;51.830;5.684;2023-02-28T11:53:05;6.30;51.80
42755;DHT22;28407;51.830;5.684;2023-02-28T11:55:25;6.30;51.90
42755;DHT22;28407;51.830;5.684;2023-02-28T12:02:26;6.50;51.50
42755;DHT22;28407;51.830;5.684;2023-02-28T12:07:15;6.60;51.50
42755;DHT22;28407;51.830;5.684;2023-02-28T12:13:25;6.80;51.40
42755;DHT22;28407;51.830;5.684;2023-02-28T12:27:19;7.10;50.30
42755;DHT22;28407;51.830;5.684;2023-02-28T12:29:29;7.10;49.90
42755;DHT22;28407;51.830;5.684;2023-02-28T12:31:36;7.20;49.70
42755;DHT22;28407;51.830;5.684;2023-02-28T12:33:47;7.30;49.80
42755;DHT22;28407;51.830;5.684;2023-02-28T12:35:57;7.30;50.00
42755;DHT22;28407;51.830;5.684;2023-02-28T12:38:04;7.40;49.90
42755;DHT22;28407;51.830;5.684;2023-02-28T12:40:12;7.50;49.80
42755;DHT22;28407;51.830;5.684;2023-02-28T12:42:24;7.50;49.30
42755;DHT22;28407;51.830;5.684;2023-02-28T12:44:31;7.60;49.20
42755;DHT22;28407;51.830;5.684;2023-02-28T12:46:38;7.70;49.30
42755;DHT22;28407;51.830;5.684;2023-02-28T12:48:56;7.70;49.30
42755;DHT22;28407;51.830;5.684;2023-02-28T12:50:59;7.80;49.20
42755;DHT22;28407;51.830;5.684;2023-02-28T12:53:04;7.80;49.00
42755;DHT22;28407;51.830;5.684;2023-02-28T12:55:19;7.80;48.10
42755;DHT22;28407;51.830;5.684;2023-02-28T12:57:24;7.90;48.20
42755;DHT22;28407;51.830;5.684;2023-02-28T12:59:48;7.90;48.50
42755;DHT22;28407;51.830;5.684;2023-02-28T13:11:04;8.30;48.10
42755;DHT22;28407;51.830;5.684;2023-02-28T13:13:05;8.30;48.10
42755;DHT22;28407;51.830;5.684;2023-02-28T13:17:25;8.40;48.10
42755;DHT22;28407;51.830;5.684;2023-02-28T13:19:28;8.50;48.30
42755;DHT22;28407;51.830;5.684;2023-02-28T13:21:30;8.50;47.90
42755;DHT22;28407;51.830;5.684;2023-02-28T13:25:52;8.50;47.90
42755;DHT22;28407;51.830;5.684;2023-02-28T13:27:54;8.60;47.90
42755;DHT22;28407;51.830;5.684;2023-02-28T13:29:57;8.70;48.20
42755;DHT22;28407;51.830;5.684;2023-02-28T13:34:15;8.80;48.10
42755;DHT22;28407;51.830;5.684;2023-02-28T13:38:25;8.80;48.00
42755;DHT22;28407;51.830;5.684;2023-02-28T13:40:32;8.90;48.10
42755;DHT22;28407;51.830;5.684;2023-02-28T13:51:44;9.00;47.80
42755;DHT22;28407;51.830;5.684;2023-02-28T13:53:59;9.00;47.60
42755;DHT22;28407;51.830;5.684;2023-02-28T13:56:07;8.90;47.00
42755;DHT22;28407;51.830;5.684;2023-02-28T13:59:06;8.90;47.20
42755;DHT22;28407;51.830;5.684;2023-02-28T14:03:25;8.90;47.10
42755;DHT22;28407;51.830;5.684;2023-02-28T14:05:30;8.90;46.90
42755;DHT22;28407;51.830;5.684;2023-02-28T14:07:54;8.90;47.10
42755;DHT22;28407;51.830;5.684;2023-02-28T14:10:02;8.90;47.20
42755;DHT22;28407;51.830;5.684;2023-02-28T14:16:48;9.00;46.90
42755;DHT22;28407;51.830;5.684;2023-02-28T14:18:56;8.90;46.70
42755;DHT22;28407;51.830;5.684;2023-02-28T14:21:16;8.90;47.10
42755;DHT22;28407;51.830;5.684;2023-02-28T14:23:38;9.00;47.00
42755;DHT22;28407;51.830;5.684;2023-02-28T14:26:03;9.00;47.00
42755;DHT22;28407;51.830;5.684;2023-02-28T14:30:39;9.10;47.00
42755;DHT22;28407;51.830;5.684;2023-02-28T14:37:29;9.10;47.30
42755;DHT22;28407;51.830;5.684;2023-02-28T14:39:31;9.10;46.80
42755;DHT22;28407;51.830;5.684;2023-02-28T14:41:35;9.10;46.80
42755;DHT22;28407;51.830;5.684;2023-02-28T14:43:48;9.20;46.80
42755;DHT22;28407;51.830;5.684;2023-02-28T14:45:52;9.20;46.70
42755;DHT22;28407;51.830;5.684;2023-02-28T14:47:54;9.20;46.10
42755;DHT22;28407;51.830;5.684;2023-02-28T14:49:55;9.20;46.50
42755;DHT22;28407;51.830;5.684;2023-02-28T14:54:14;9.20;46.50
42755;DHT22;28407;51.830;5.684;2023-02-28T14:56:30;9.10;46.40
42755;DHT22;28407;51.830;5.684;2023-02-28T14:58:33;9.10;46.20
42755;DHT22;28407;51.830;5.684;2023-02-28T15:00:36;9.00;46.40
42755;DHT22;28407;51.830;5.684;2023-02-28T15:02:39;9.00;46.60
42755;DHT22;28407;51.830;5.684;2023-02-28T15:04:40;9.10;46.70
42755;DHT22;28407;51.830;5.684;2023-02-28T15:06:42;9.10;46.50
42755;DHT22;28407;51.830;5.684;2023-02-28T15:08:43;9.00;46.70
42755;DHT22;28407;51.830;5.684;2023-02-28T15:10:57;9.00;46.80
42755;DHT22;28407;51.830;5.684;2023-02-28T15:13:07;9.00;46.80
42755;DHT22;28407;51.830;5.684;2023-02-28T15:15:17;9.00;46.70
42755;DHT22;28407;51.830;5.684;2023-02-28T15:17:23;8.90;46.80